Ana Sayfa
METAR-TAF:

METAR-TAF

Havaalanları :

Samsun Çarşamba Havalimanı

Samsun, Türkiye

Enlem: 41-15-15N, Boylam: 036-34-03E, yükseklik: 5 m

Güncel hava durumu gözlemi

Rapor saat 05:50 UTC de 1 saat ve 23 dakika önce yapıldı.
Rüzgar güneydan 7 kt, güneydoğu ve güneybatı arasında değişken
Sıcaklık 7°C
Nem 49%
Basınç 1024 hPa
Görüş mesafesi 10 km veya daha fazla
1500 m altında bulut yok ve kümülonimbus yok

METAR: LTFH 140550Z 18007KT 140V230 CAVOK 07/M03 Q1024 NOSIG

Saat: 10:13 (07:13 UTC)

Tahmin

Rapor saat 04:40 UTC de 2 saat ve 33 dakika önce yapıldı.
Ayın 14'si saat 06 UTC'den ayın 14'si saat 15 UTC'ye kadar geçerli Tahmin
Rüzgar değişken yönden 2 kt
Görüş mesafesi 10 km veya daha fazla
1500 m altında bulut yok ve kümülonimbus yok

TAF: LTFH 140440Z 1406/1415 VRB02KT CAVOK

4.000'den fazla havaalanı için hava durumu gözlemleri ve tahminleri (METAR ve TAF raporları).

Kullanılabilir istasyonlar harita üzerinde sarı ve kırmızı noktalarla gösterilir.

İstasyonun adını görmek için fareyi noktanın üzerinde gezdirin.

Sonrasında hava gözlem ve tahminlerini görmek için tıklayın.

Haritayı değiştirmek için: yaklaştırmak için siyah artı işaretli yeşil düğmeye ve uzaklaştırmak için de eksi işaretli düğmeye hızla tıklayın; bitişik haritalar için yeşil okları kullanın.


METAR-TAF: